createdAt,value
2023-04-25T00:02:24.386Z,10.68
2023-04-25T00:04:53.793Z,9.43
2023-04-25T00:07:22.045Z,14.95
2023-04-25T00:09:49.879Z,11.05
2023-04-25T00:12:17.997Z,11.35
2023-04-25T00:14:46.550Z,12.85
2023-04-25T00:17:14.282Z,16.40
2023-04-25T00:19:41.972Z,9.73
2023-04-25T00:22:11.128Z,14.23
2023-04-25T00:24:38.909Z,13.20
2023-04-25T00:27:06.639Z,9.98
2023-04-25T00:29:34.411Z,17.70
2023-04-25T00:32:02.649Z,10.82
2023-04-25T00:34:30.535Z,14.02
2023-04-25T00:36:58.790Z,12.95
2023-04-25T00:39:27.926Z,10.18
2023-04-25T00:41:56.711Z,13.88
2023-04-25T00:44:25.375Z,9.95
2023-04-25T00:46:54.356Z,14.75
2023-04-25T00:49:22.132Z,10.70
2023-04-25T00:51:50.335Z,11.15
2023-04-25T00:54:18.591Z,12.02
2023-04-25T00:56:47.828Z,8.23
2023-04-25T00:59:17.774Z,9.85
2023-04-25T01:01:46.166Z,12.90
2023-04-25T01:04:15.247Z,10.63
2023-04-25T01:06:43.504Z,9.45
2023-04-25T01:09:11.722Z,11.25
2023-04-25T01:11:41.069Z,12.57
2023-04-25T01:14:10.269Z,11.30
2023-04-25T01:16:38.388Z,11.73
2023-04-25T01:19:11.938Z,8.23
2023-04-25T01:21:41.425Z,9.23
2023-04-25T01:24:09.532Z,11.80
2023-04-25T01:26:37.994Z,14.85
2023-04-25T01:29:06.337Z,8.73
2023-04-25T01:31:35.068Z,11.35
2023-04-25T01:34:02.955Z,12.70
2023-04-25T01:36:31.488Z,11.75
2023-04-25T01:39:00.701Z,14.40
2023-04-25T01:41:29.042Z,10.40
2023-04-25T01:43:57.627Z,12.98
2023-04-25T01:46:25.582Z,9.90
2023-04-25T01:48:53.401Z,11.43
2023-04-25T01:51:21.466Z,6.97
2023-04-25T01:53:49.572Z,12.75
2023-04-25T01:56:20.010Z,9.80
2023-04-25T01:58:47.747Z,11.57
2023-04-25T02:01:15.633Z,10.75
2023-04-25T02:03:43.778Z,10.20
2023-04-25T02:06:11.567Z,10.52
2023-04-25T02:08:39.337Z,11.02
2023-04-25T02:11:07.044Z,9.48
2023-04-25T02:13:36.157Z,15.85
2023-04-25T02:16:04.097Z,11.57
2023-04-25T02:18:32.235Z,8.40
2023-04-25T02:21:00.110Z,13.25
2023-04-25T02:23:27.805Z,15.02
2023-04-25T02:25:56.319Z,10.63
2023-04-25T02:28:24.018Z,10.23
2023-04-25T02:30:53.134Z,18.77
2023-04-25T02:33:21.994Z,10.38
2023-04-25T02:35:50.046Z,12.77
2023-04-25T02:38:17.772Z,8.73
2023-04-25T02:40:45.619Z,8.73
2023-04-25T02:43:13.411Z,10.50
2023-04-25T02:45:41.089Z,13.02
2023-04-25T02:48:10.224Z,14.32
2023-04-25T02:50:37.996Z,12.85
2023-04-25T02:53:05.748Z,17.17
2023-04-25T02:55:33.443Z,17.48
2023-04-25T02:58:01.308Z,10.48
2023-04-25T03:00:29.144Z,13.75
2023-04-25T03:02:57.708Z,12.85
2023-04-25T03:05:26.922Z,12.93
2023-04-25T03:07:54.630Z,13.02
2023-04-25T03:10:22.312Z,13.23
2023-04-25T03:12:50.016Z,13.02
2023-04-25T03:15:18.180Z,16.05
2023-04-25T03:17:46.078Z,19.52
2023-04-25T03:20:14.074Z,9.88
2023-04-25T03:22:43.220Z,13.75
2023-04-25T03:25:10.929Z,13.32
2023-04-25T03:27:38.615Z,11.25
2023-04-25T03:30:08.800Z,14.10
2023-04-25T03:32:36.607Z,18.95
2023-04-25T03:35:04.687Z,11.63
2023-04-25T03:37:32.439Z,15.43
2023-04-25T03:40:01.564Z,8.90
2023-04-25T03:42:29.306Z,12.60
2023-04-25T03:44:57.111Z,17.10
2023-04-25T03:47:24.817Z,13.32
2023-04-25T03:49:52.810Z,12.80
2023-04-25T03:52:20.520Z,14.57
2023-04-25T03:54:48.235Z,15.02
2023-04-25T03:57:17.346Z,10.50
2023-04-25T03:59:45.119Z,11.98
2023-04-25T04:02:12.981Z,17.02
2023-04-25T04:04:41.125Z,14.57
2023-04-25T04:07:09.031Z,13.38
2023-04-25T04:09:36.768Z,12.63
2023-04-25T04:12:04.853Z,10.73
2023-04-25T04:14:34.053Z,15.27
2023-04-25T04:17:01.884Z,11.63
2023-04-25T04:19:29.600Z,16.55
2023-04-25T04:21:57.320Z,10.00
2023-04-25T04:24:25.112Z,8.95
2023-04-25T04:26:53.086Z,12.88
2023-04-25T04:29:22.553Z,12.60
2023-04-25T04:31:53.714Z,11.43
2023-04-25T04:34:21.669Z,13.23
2023-04-25T04:36:49.921Z,12.30
2023-04-25T04:39:17.694Z,12.13
2023-04-25T04:41:45.407Z,10.80
2023-04-25T04:44:13.459Z,12.15
2023-04-25T04:46:43.196Z,12.30
2023-04-25T04:49:14.678Z,11.18
2023-04-25T04:51:45.386Z,14.77
2023-04-25T04:54:13.073Z,15.18
2023-04-25T04:56:41.284Z,17.35
2023-04-25T04:59:09.000Z,17.88
2023-04-25T05:01:37.230Z,16.10
2023-04-25T05:04:05.280Z,11.55
2023-04-25T05:06:34.432Z,13.82
2023-04-25T05:09:02.128Z,16.52
2023-04-25T05:11:29.924Z,14.55
2023-04-25T05:13:57.675Z,15.82
2023-04-25T05:16:25.506Z,17.92
2023-04-25T05:18:53.265Z,12.95
2023-04-25T05:21:20.942Z,14.30
2023-04-25T05:23:50.611Z,14.43
2023-04-25T05:26:18.556Z,13.55
2023-04-25T05:28:46.297Z,11.63
2023-04-25T05:31:14.109Z,19.15
2023-04-25T05:33:41.834Z,14.43
2023-04-25T05:36:10.283Z,19.92
2023-04-25T05:38:37.953Z,14.95
2023-04-25T05:41:07.100Z,12.25
2023-04-25T05:43:34.852Z,15.38
2023-04-25T05:46:02.744Z,14.75
2023-04-25T05:48:31.002Z,16.95
2023-04-25T05:50:58.698Z,13.77
2023-04-25T05:53:26.391Z,15.02
2023-04-25T05:55:54.089Z,12.45
2023-04-25T05:58:23.183Z,17.38
2023-04-25T06:00:51.243Z,16.83
2023-04-25T06:03:20.906Z,15.60
2023-04-25T06:05:49.162Z,11.63
2023-04-25T06:08:16.950Z,15.93
2023-04-25T06:10:44.823Z,17.38
2023-04-25T06:13:12.600Z,15.48
2023-04-25T06:15:41.658Z,26.75
2023-04-25T06:18:09.534Z,17.75
2023-04-25T06:20:37.307Z,18.63
2023-04-25T06:23:05.069Z,14.85
2023-04-25T06:25:32.783Z,16.83
2023-04-25T06:28:00.796Z,22.38
2023-04-25T06:30:28.794Z,22.90
2023-04-25T06:32:57.948Z,18.13
2023-04-25T06:35:25.733Z,15.07
2023-04-25T06:37:53.455Z,14.45
2023-04-25T06:40:21.314Z,20.70
2023-04-25T06:42:49.115Z,12.02
2023-04-25T06:45:16.952Z,14.13
2023-04-25T06:47:44.962Z,11.32
2023-04-25T06:50:14.129Z,10.85
2023-04-25T06:52:41.884Z,13.18
2023-04-25T06:55:10.740Z,16.23
2023-04-25T06:57:38.548Z,12.40
2023-04-25T07:00:10.258Z,9.73
2023-04-25T07:02:38.549Z,14.93
2023-04-25T07:05:06.880Z,8.70
2023-04-25T07:07:38.599Z,7.90
2023-04-25T07:10:07.488Z,15.35
2023-04-25T07:12:35.294Z,10.20
2023-04-25T07:15:06.820Z,13.25
2023-04-25T07:17:35.719Z,11.35
2023-04-25T07:20:04.774Z,10.70
2023-04-25T07:22:32.481Z,12.07
2023-04-25T07:25:01.588Z,11.10
2023-04-25T07:27:29.460Z,6.50
2023-04-25T07:29:57.311Z,10.40
2023-04-25T07:32:25.489Z,8.35
2023-04-25T07:34:53.259Z,8.13
2023-04-25T07:37:21.170Z,13.27
2023-04-25T07:39:48.990Z,8.93
2023-04-25T07:42:18.105Z,8.75
2023-04-25T07:44:45.945Z,14.88
2023-04-25T07:47:14.132Z,9.52
2023-04-25T07:49:42.094Z,8.18
2023-04-25T07:52:09.907Z,11.00
2023-04-25T07:54:37.709Z,7.45
2023-04-25T07:57:07.306Z,9.00
2023-04-25T07:59:36.745Z,9.55
2023-04-25T08:02:04.507Z,9.88
2023-04-25T08:04:32.313Z,17.15
2023-04-25T08:07:00.829Z,9.55
2023-04-25T08:09:28.654Z,6.22
2023-04-25T08:11:56.406Z,18.17
2023-04-25T08:14:24.107Z,7.60
2023-04-25T08:16:53.154Z,14.18
2023-04-25T08:19:20.894Z,9.73
2023-04-25T08:21:48.672Z,10.27
2023-04-25T08:24:16.377Z,12.82
2023-04-25T08:26:44.718Z,7.43
2023-04-25T08:29:12.487Z,6.45
2023-04-25T08:31:40.365Z,8.90
2023-04-25T08:34:09.466Z,10.07
2023-04-25T08:36:39.697Z,11.10
2023-04-25T08:39:08.346Z,6.65
2023-04-25T08:41:36.451Z,9.77
2023-04-25T08:44:05.516Z,10.98
2023-04-25T08:46:34.216Z,10.52
2023-04-25T08:49:03.546Z,5.88
2023-04-25T08:51:34.175Z,12.63
2023-04-25T08:54:28.004Z,10.45
2023-04-25T08:57:00.558Z,11.45
2023-04-25T08:59:29.005Z,11.30
2023-04-25T09:01:57.146Z,11.60
2023-04-25T09:04:24.881Z,11.85
2023-04-25T09:06:53.973Z,7.18
2023-04-25T09:09:22.415Z,12.27
2023-04-25T09:11:50.484Z,14.00
2023-04-25T09:14:21.434Z,9.85
2023-04-25T09:17:03.670Z,7.57
2023-04-25T09:19:40.398Z,12.32
2023-04-25T09:22:10.694Z,12.68
2023-04-25T09:24:39.704Z,8.65
2023-04-25T09:27:08.393Z,15.15
2023-04-25T09:29:38.666Z,8.85
2023-04-25T09:32:14.737Z,5.97
2023-04-25T09:34:43.697Z,6.18
2023-04-25T09:37:13.659Z,9.60
2023-04-25T09:39:41.641Z,13.32
2023-04-25T09:42:11.724Z,6.57
2023-04-25T09:44:44.546Z,6.95
2023-04-25T09:47:13.608Z,17.15
2023-04-25T09:49:44.018Z,6.28
2023-04-25T09:52:16.371Z,8.13
2023-04-25T09:54:44.168Z,5.90
2023-04-25T09:57:14.389Z,5.57
2023-04-25T09:59:46.556Z,7.15
2023-04-25T10:02:15.868Z,6.60
2023-04-25T10:04:44.809Z,5.47
2023-04-25T10:07:14.400Z,8.07
2023-04-25T10:09:42.884Z,8.23
2023-04-25T10:12:10.675Z,7.20
2023-04-25T10:14:38.471Z,9.00
2023-04-25T10:17:06.193Z,7.95
2023-04-25T10:19:34.449Z,6.13
2023-04-25T10:22:09.900Z,6.63
2023-04-25T10:24:40.488Z,7.70
2023-04-25T10:27:08.589Z,6.80
2023-04-25T10:29:37.347Z,11.52
2023-04-25T10:32:05.618Z,13.52
2023-04-25T10:34:43.984Z,6.45
2023-04-25T10:37:12.477Z,5.38
2023-04-25T10:39:43.263Z,6.13
2023-04-25T10:42:11.145Z,6.45
2023-04-25T10:44:40.407Z,8.93
2023-04-25T10:47:10.529Z,6.63
2023-04-25T10:49:40.246Z,7.70
2023-04-25T10:52:16.395Z,4.65
2023-04-25T10:54:49.255Z,4.70
2023-04-25T10:57:29.753Z,4.57
2023-04-25T11:00:01.375Z,9.40
2023-04-25T11:02:30.428Z,6.63
2023-04-25T11:04:58.400Z,4.82
2023-04-25T11:07:35.932Z,7.30
2023-04-25T11:10:06.012Z,5.35
2023-04-25T11:12:34.013Z,6.90
2023-04-25T11:15:03.266Z,3.85
2023-04-25T11:17:31.699Z,6.45
2023-04-25T11:19:59.866Z,10.70
2023-04-25T11:22:30.894Z,7.30
2023-04-25T11:24:58.622Z,6.93
2023-04-25T11:27:27.731Z,11.32
2023-04-25T11:29:55.878Z,9.73
2023-04-25T11:32:24.283Z,8.52
2023-04-25T11:34:54.761Z,10.93
2023-04-25T11:37:22.523Z,8.93
2023-04-25T11:39:50.362Z,4.85
2023-04-25T11:42:18.208Z,8.95
2023-04-25T11:44:47.350Z,7.13
2023-04-25T11:47:15.057Z,13.57
2023-04-25T11:49:42.828Z,7.20
2023-04-25T11:52:10.693Z,7.75
2023-04-25T11:54:38.933Z,11.73
2023-04-25T11:57:06.780Z,6.55
2023-04-25T11:59:34.647Z,8.30
2023-04-25T12:02:03.797Z,3.20
2023-04-25T12:04:33.617Z,7.05
2023-04-25T12:07:02.711Z,7.65
2023-04-25T12:09:32.723Z,9.48
2023-04-25T12:12:04.106Z,6.15
2023-04-25T12:14:33.894Z,4.82
2023-04-25T12:17:04.893Z,4.90
2023-04-25T12:19:36.870Z,6.07
2023-04-25T12:22:05.494Z,5.38
2023-04-25T12:24:39.041Z,7.28
2023-04-25T12:27:09.189Z,9.10
2023-04-25T12:32:09.266Z,5.63
2023-04-25T12:34:37.138Z,5.32
2023-04-25T12:37:04.912Z,4.38
2023-04-25T12:39:32.684Z,6.70
2023-04-25T12:42:00.759Z,4.97
2023-04-25T12:44:28.976Z,5.57
2023-04-25T12:46:56.956Z,4.93
2023-04-25T12:49:26.396Z,4.32
2023-04-25T12:51:54.140Z,2.42
2023-04-25T12:54:21.877Z,4.72
2023-04-25T12:56:49.635Z,4.28
2023-04-25T12:59:17.344Z,5.28
2023-04-25T13:01:45.383Z,1.85
2023-04-25T13:04:13.303Z,4.30
2023-04-25T13:06:42.625Z,4.82
2023-04-25T13:09:10.591Z,3.72
2023-04-25T13:11:38.366Z,6.47
2023-04-25T13:14:07.626Z,5.97
2023-04-25T13:16:35.676Z,6.68
2023-04-25T13:19:03.834Z,4.70
2023-04-25T13:21:33.563Z,7.45
2023-04-25T13:24:02.749Z,2.88
2023-04-25T13:26:30.559Z,5.82
2023-04-25T13:28:58.256Z,4.28
2023-04-25T13:31:26.296Z,5.88
2023-04-25T13:33:54.257Z,3.90
2023-04-25T13:36:22.173Z,11.68
2023-04-25T13:38:50.576Z,5.40
2023-04-25T13:41:19.883Z,3.80
2023-04-25T13:43:49.858Z,7.00
2023-04-25T13:48:49.688Z,6.38
2023-04-25T13:51:18.576Z,6.55
2023-04-25T13:53:46.809Z,5.95
2023-04-25T13:56:14.575Z,3.65
2023-04-25T13:58:43.666Z,3.83
2023-04-25T14:01:12.539Z,3.80
2023-04-25T14:03:41.035Z,5.40
2023-04-25T14:06:09.605Z,3.53
2023-04-25T14:08:37.401Z,6.65
2023-04-25T14:11:05.219Z,5.15
2023-04-25T14:13:32.962Z,3.10
2023-04-25T14:16:02.291Z,6.90
2023-04-25T14:18:30.034Z,4.95
2023-04-25T14:20:57.708Z,7.68
2023-04-25T14:23:25.512Z,4.10
2023-04-25T14:25:53.286Z,5.88
2023-04-25T14:28:21.788Z,6.15
2023-04-25T14:30:49.558Z,5.45
2023-04-25T14:33:18.668Z,9.05
2023-04-25T14:35:46.706Z,6.30
2023-04-25T14:38:15.181Z,7.95
2023-04-25T14:40:43.608Z,4.28
2023-04-25T14:43:11.401Z,8.48
2023-04-25T14:45:39.122Z,6.22
2023-04-25T14:48:07.688Z,6.00
2023-04-25T14:50:36.957Z,7.63
2023-04-25T14:53:04.716Z,4.50
2023-04-25T14:55:32.577Z,4.40
2023-04-25T14:58:00.291Z,6.28
2023-04-25T15:00:28.039Z,7.93
2023-04-25T15:02:56.069Z,6.43
2023-04-25T15:05:23.877Z,8.95
2023-04-25T15:07:52.968Z,8.98
2023-04-25T15:10:21.310Z,7.53
2023-04-25T15:12:49.035Z,8.07
2023-04-25T15:15:25.917Z,10.70
2023-04-25T15:17:58.663Z,6.72
2023-04-25T15:20:27.900Z,3.97
2023-04-25T15:22:57.138Z,6.22
2023-04-25T15:25:25.024Z,4.50
2023-04-25T15:27:54.549Z,5.10
2023-04-25T15:30:22.723Z,4.60
2023-04-25T15:32:50.594Z,4.05
2023-04-25T15:35:18.301Z,5.05
2023-04-25T15:37:46.285Z,4.57
2023-04-25T15:40:17.504Z,7.82
2023-04-25T15:42:48.477Z,7.68
2023-04-25T15:45:17.857Z,5.20
2023-04-25T15:47:46.531Z,4.63
2023-04-25T15:50:15.963Z,7.88
2023-04-25T15:52:43.951Z,5.80
2023-04-25T15:55:12.913Z,6.35
2023-04-25T15:57:42.455Z,10.25
2023-04-25T16:00:13.060Z,8.10
2023-04-25T16:02:41.918Z,10.02
2023-04-25T16:05:11.485Z,5.40
2023-04-25T16:07:39.892Z,5.40
2023-04-25T16:10:08.717Z,5.95
2023-04-25T16:12:37.145Z,10.52
2023-04-25T16:15:07.058Z,6.25
2023-04-25T16:17:35.358Z,3.17
2023-04-25T16:20:09.542Z,8.63
2023-04-25T16:22:37.431Z,7.72
2023-04-25T16:25:05.844Z,10.60
2023-04-25T16:27:34.586Z,4.43
2023-04-25T16:30:02.339Z,4.60
2023-04-25T16:32:31.907Z,6.68
2023-04-25T16:34:59.604Z,5.88
2023-04-25T16:37:27.697Z,6.63
2023-04-25T16:39:55.461Z,8.82
2023-04-25T16:42:23.240Z,6.63
2023-04-25T16:44:51.029Z,4.93
2023-04-25T16:47:20.381Z,5.63
2023-04-25T16:49:50.793Z,5.70
2023-04-25T16:52:21.279Z,5.75
2023-04-25T16:54:48.946Z,3.50
2023-04-25T16:57:16.745Z,5.25
2023-04-25T16:59:44.448Z,5.45
2023-04-25T17:02:13.935Z,7.18
2023-04-25T17:04:42.083Z,4.38
2023-04-25T17:07:11.337Z,6.82
2023-04-25T17:09:39.134Z,3.17
2023-04-25T17:12:08.088Z,4.82
2023-04-25T17:14:35.890Z,4.32
2023-04-25T17:17:03.854Z,7.28
2023-04-25T17:19:32.260Z,8.32
2023-04-25T17:22:00.189Z,4.25
2023-04-25T17:24:29.291Z,4.78
2023-04-25T17:26:57.368Z,5.82
2023-04-25T17:29:26.764Z,6.13
2023-04-25T17:31:54.624Z,6.97
2023-04-25T17:34:22.344Z,4.70
2023-04-25T17:36:50.338Z,6.10
2023-04-25T17:39:18.339Z,7.85
2023-04-25T17:41:47.453Z,4.65
2023-04-25T17:44:15.144Z,3.95
2023-04-25T17:46:42.913Z,5.07
2023-04-25T17:49:11.656Z,6.47
2023-04-25T17:51:39.468Z,6.25
2023-04-25T17:54:07.684Z,3.97
2023-04-25T17:56:38.424Z,5.18
2023-04-25T17:59:07.788Z,3.22
2023-04-25T18:01:35.961Z,8.70
2023-04-25T18:04:04.463Z,8.38
2023-04-25T18:06:32.806Z,4.82
2023-04-25T18:09:02.065Z,7.20
2023-04-25T18:11:30.761Z,4.35
2023-04-25T18:13:58.524Z,5.03
2023-04-25T18:16:29.459Z,5.18
2023-04-25T18:19:05.197Z,6.75
2023-04-25T18:21:32.929Z,8.30
2023-04-25T18:24:01.220Z,7.97
2023-04-25T18:26:30.800Z,5.85
2023-04-25T18:28:59.063Z,5.28
2023-04-25T18:31:29.825Z,4.03
2023-04-25T18:33:57.612Z,4.30
2023-04-25T18:36:25.370Z,9.00
2023-04-25T18:38:56.226Z,4.82
2023-04-25T18:41:50.980Z,9.15
2023-04-25T18:44:13.709Z,7.43
2023-04-25T18:46:43.696Z,6.38
2023-04-25T18:49:11.411Z,10.00
2023-04-25T18:51:39.190Z,4.95
2023-04-25T18:54:09.770Z,7.15
2023-04-25T18:56:37.575Z,4.70
2023-04-25T18:59:05.596Z,5.38
2023-04-25T19:01:33.670Z,7.43
2023-04-25T19:04:05.823Z,10.90
2023-04-25T19:06:34.629Z,13.05
2023-04-25T19:09:02.707Z,7.88
2023-04-25T19:11:30.741Z,5.03
2023-04-25T19:13:58.465Z,6.60
2023-04-25T19:16:27.597Z,5.65
2023-04-25T19:18:56.398Z,7.47
2023-04-25T19:21:25.542Z,7.50
2023-04-25T19:23:54.374Z,7.80
2023-04-25T19:26:22.623Z,7.90
2023-04-25T19:29:04.524Z,5.90
2023-04-25T19:31:32.464Z,8.82
2023-04-25T19:34:00.323Z,7.85
2023-04-25T19:36:29.502Z,8.05
2023-04-25T19:39:02.392Z,4.47
2023-04-25T19:41:30.262Z,4.80
2023-04-25T19:43:59.881Z,5.10
2023-04-25T19:46:27.726Z,6.25
2023-04-25T19:48:55.425Z,3.85
2023-04-25T19:51:23.343Z,6.22
2023-04-25T19:53:54.420Z,4.60
2023-04-25T19:56:22.284Z,6.82
2023-04-25T19:58:51.125Z,6.75
2023-04-25T20:01:22.076Z,5.80
2023-04-25T20:03:51.640Z,4.47
2023-04-25T20:06:20.094Z,8.13
2023-04-25T20:08:48.125Z,6.55
2023-04-25T20:11:17.605Z,7.82
2023-04-25T20:13:45.395Z,7.28
2023-04-25T20:16:13.518Z,4.90
2023-04-25T20:18:41.554Z,5.40
2023-04-25T20:21:09.486Z,5.88
2023-04-25T20:23:37.232Z,13.15
2023-04-25T20:26:05.154Z,7.35
2023-04-25T20:28:35.469Z,5.30
2023-04-25T20:31:03.234Z,6.18
2023-04-25T20:33:31.120Z,7.18
2023-04-25T20:35:58.952Z,10.98
2023-04-25T20:38:26.893Z,5.40
2023-04-25T20:40:56.357Z,7.00
2023-04-25T20:43:25.805Z,14.45
2023-04-25T20:45:55.220Z,6.63
2023-04-25T20:48:23.070Z,7.53
2023-04-25T20:50:51.491Z,5.22
2023-04-25T20:53:19.453Z,6.57
2023-04-25T20:55:47.303Z,3.92
2023-04-25T20:58:15.327Z,6.40
2023-04-25T21:00:43.920Z,8.38
2023-04-25T21:03:13.257Z,9.60
2023-04-25T21:05:41.218Z,9.20
2023-04-25T21:08:09.515Z,4.45
2023-04-25T21:10:37.662Z,7.10
2023-04-25T21:13:05.838Z,11.27
2023-04-25T21:15:33.714Z,7.55
2023-04-25T21:18:01.869Z,4.45
2023-04-25T21:20:31.427Z,7.85
2023-04-25T21:23:00.229Z,7.93
2023-04-25T21:25:31.289Z,11.73
2023-04-25T21:28:02.237Z,8.27
2023-04-25T21:30:30.282Z,10.68
2023-04-25T21:32:58.081Z,7.70
2023-04-25T21:35:26.073Z,7.93
2023-04-25T21:37:55.289Z,8.07
2023-04-25T21:40:22.974Z,7.57
2023-04-25T21:42:53.325Z,7.15
2023-04-25T21:45:21.564Z,6.80
2023-04-25T21:47:49.604Z,8.65
2023-04-25T21:50:18.470Z,6.43
2023-04-25T21:52:46.705Z,5.85
2023-04-25T21:55:16.494Z,6.45
2023-04-25T21:57:44.561Z,11.88
2023-04-25T22:00:24.650Z,8.90
2023-04-25T22:02:53.372Z,6.45
2023-04-25T22:05:22.489Z,3.97
2023-04-25T22:07:51.550Z,7.95
2023-04-25T22:10:21.385Z,5.18
2023-04-25T22:12:50.846Z,7.45
2023-04-25T22:15:19.344Z,13.32
2023-04-25T22:17:47.500Z,6.28
2023-04-25T22:20:15.931Z,5.45
2023-04-25T22:22:44.111Z,7.53
2023-04-25T22:25:12.964Z,8.50
2023-04-25T22:27:43.661Z,11.45
2023-04-25T22:30:13.710Z,6.75
2023-04-25T22:32:42.277Z,8.98
2023-04-25T22:35:11.711Z,10.77
2023-04-25T22:37:40.088Z,11.85
2023-04-25T22:40:09.146Z,9.65
2023-04-25T22:42:40.770Z,8.20
2023-04-25T22:45:11.425Z,7.25
2023-04-25T22:47:40.837Z,8.77
2023-04-25T22:50:13.177Z,12.98
2023-04-25T22:52:41.902Z,8.38
2023-04-25T22:55:10.940Z,13.85
2023-04-25T22:57:39.323Z,8.45
2023-04-25T23:00:15.695Z,7.20
